createdAt,value
2018-07-14T04:55:00.317Z,26.86
2018-07-14T04:56:07.472Z,27.11
2018-07-14T04:57:17.389Z,27.39
2018-07-14T04:58:26.434Z,27.66
2018-07-14T04:59:34.044Z,27.88
2018-07-14T05:00:42.028Z,28.08
2018-07-14T05:01:50.138Z,28.24
2018-07-14T05:03:00.875Z,28.41
2018-07-14T05:04:10.667Z,28.55
2018-07-14T05:05:17.685Z,28.73
2018-07-14T05:06:25.021Z,28.87
2018-07-14T05:07:32.327Z,29.04
2018-07-14T05:08:40.437Z,29.19
2018-07-14T05:09:47.664Z,29.33
2018-07-14T05:10:54.864Z,29.51
2018-07-14T05:12:02.512Z,29.58
2018-07-14T05:13:09.413Z,29.65
2018-07-14T05:14:16.815Z,29.72
2018-07-14T05:15:23.716Z,29.80
2018-07-14T05:16:30.778Z,29.86
2018-07-14T05:17:37.966Z,29.93
2018-07-14T05:18:44.310Z,30.01
2018-07-14T05:19:51.807Z,30.07
2018-07-14T05:20:58.005Z,30.10
2018-07-14T05:22:04.220Z,30.07
2018-07-14T05:23:10.912Z,30.10
2018-07-14T05:24:18.124Z,30.12
2018-07-14T05:25:24.436Z,30.24
2018-07-14T05:26:30.837Z,30.38
2018-07-14T05:27:40.751Z,30.46
2018-07-14T05:28:47.116Z,30.54
2018-07-14T05:29:53.351Z,30.56
2018-07-14T05:31:00.043Z,30.56
2018-07-14T05:32:07.936Z,30.59
2018-07-14T05:33:14.364Z,30.61
2018-07-14T05:34:20.820Z,30.74
2018-07-14T05:35:27.002Z,30.90
2018-07-14T05:36:35.980Z,31.09
2018-07-14T05:37:42.643Z,31.19
2018-07-14T05:38:48.758Z,31.21
2018-07-14T05:39:55.042Z,31.20
2018-07-14T05:41:01.650Z,31.23
2018-07-14T05:42:08.007Z,31.32
2018-07-14T05:43:14.288Z,31.37
2018-07-14T05:44:20.388Z,31.47
2018-07-14T05:45:27.531Z,31.61
2018-07-14T05:46:33.962Z,31.66
2018-07-14T05:47:40.268Z,31.64
2018-07-14T05:48:46.435Z,31.71
2018-07-14T05:49:52.573Z,31.85
2018-07-14T05:50:58.752Z,32.03
2018-07-14T05:52:05.335Z,32.23
2018-07-14T05:53:11.956Z,32.41
2018-07-14T05:54:18.368Z,32.58
2018-07-14T05:55:25.301Z,32.75
2018-07-14T05:56:31.420Z,32.89
2018-07-14T05:57:37.492Z,33.06
2018-07-14T05:58:43.622Z,33.23
2018-07-14T05:59:50.057Z,33.38
2018-07-14T06:00:57.374Z,33.50
2018-07-14T06:02:03.682Z,33.63
2018-07-14T06:03:10.636Z,33.76
2018-07-14T06:04:16.937Z,33.90
2018-07-14T06:05:24.487Z,34.07
2018-07-14T06:06:30.762Z,34.22
2018-07-14T06:07:38.806Z,34.30
2018-07-14T06:08:45.636Z,34.40
2018-07-14T06:09:52.667Z,34.51
2018-07-14T06:10:59.964Z,34.64
2018-07-14T06:12:09.120Z,34.77
2018-07-14T06:13:15.566Z,34.91
2018-07-14T06:14:22.600Z,35.05
2018-07-14T06:15:29.736Z,35.16
2018-07-14T06:16:36.846Z,35.21
2018-07-14T06:17:43.147Z,35.28
2018-07-14T06:18:49.512Z,35.37
2018-07-14T06:19:55.878Z,35.47
2018-07-14T06:21:02.142Z,35.57
2018-07-14T06:22:09.663Z,35.64
2018-07-14T06:23:15.865Z,35.70
2018-07-14T06:24:23.358Z,35.76
2018-07-14T06:25:29.652Z,35.70
2018-07-14T06:26:35.801Z,35.68
2018-07-14T06:27:44.295Z,35.64
2018-07-14T06:28:50.477Z,35.66
2018-07-14T06:29:57.516Z,35.69
2018-07-14T06:31:04.682Z,35.76
2018-07-14T06:32:10.906Z,35.85
2018-07-14T06:33:17.125Z,35.94
2018-07-14T06:34:24.784Z,36.04
2018-07-14T06:35:31.389Z,36.17
2018-07-14T06:36:38.476Z,36.29
2018-07-14T06:37:44.766Z,36.41
2018-07-14T06:38:50.938Z,36.53
2018-07-14T06:39:57.172Z,36.63
2018-07-14T06:41:03.514Z,36.69
2018-07-14T06:42:10.245Z,36.74
2018-07-14T06:43:17.319Z,36.81
2018-07-14T06:44:24.110Z,36.89
2018-07-14T06:45:30.390Z,37.02
2018-07-14T06:46:36.504Z,37.11
2018-07-14T06:47:42.908Z,37.24
2018-07-14T06:48:49.135Z,37.29
2018-07-14T06:49:58.748Z,37.35
2018-07-14T06:51:04.981Z,37.44
2018-07-14T06:52:11.631Z,37.54
2018-07-14T06:53:17.866Z,37.64
2018-07-14T06:54:24.189Z,37.76
2018-07-14T06:55:30.341Z,37.86
2018-07-14T06:56:36.334Z,37.93
2018-07-14T06:57:42.527Z,37.98
2018-07-14T06:58:49.074Z,38.01
2018-07-14T06:59:55.318Z,38.08
2018-07-14T07:01:01.524Z,38.11
2018-07-14T07:02:07.866Z,38.18
2018-07-14T07:03:14.983Z,38.25
2018-07-14T07:04:21.948Z,38.28
2018-07-14T07:05:28.107Z,38.33
2018-07-14T07:06:34.326Z,38.35
2018-07-14T07:07:42.008Z,38.42
2018-07-14T07:08:49.013Z,38.55
2018-07-14T07:09:55.198Z,38.68
2018-07-14T07:11:02.282Z,38.80
2018-07-14T07:12:08.944Z,38.92
2018-07-14T07:13:15.134Z,39.04
2018-07-14T07:14:22.419Z,39.11
2018-07-14T07:15:29.572Z,39.12
2018-07-14T07:16:35.932Z,39.12
2018-07-14T07:17:42.092Z,39.13
2018-07-14T07:18:49.054Z,39.13
2018-07-14T07:19:55.306Z,39.11
2018-07-14T07:21:04.156Z,39.05
2018-07-14T07:22:12.142Z,39.02
2018-07-14T07:23:19.538Z,39.02
2018-07-14T07:24:25.764Z,39.08
2018-07-14T07:25:32.052Z,39.13
2018-07-14T07:26:40.500Z,39.19
2018-07-14T07:27:48.003Z,39.23
2018-07-14T07:28:54.697Z,39.26
2018-07-14T07:30:00.968Z,39.29
2018-07-14T07:31:07.219Z,39.32
2018-07-14T07:32:13.666Z,39.33
2018-07-14T07:33:20.848Z,39.32
2018-07-14T07:34:29.699Z,39.32
2018-07-14T07:35:35.914Z,39.29
2018-07-14T07:36:42.236Z,39.37
2018-07-14T07:37:49.522Z,39.44
2018-07-14T07:38:55.685Z,39.52
2018-07-14T07:40:01.867Z,39.56
2018-07-14T07:41:08.100Z,39.69
2018-07-14T07:42:15.256Z,39.79
2018-07-14T07:43:21.591Z,39.91
2018-07-14T07:44:27.838Z,40.06
2018-07-14T07:45:34.526Z,40.19
2018-07-14T07:46:40.733Z,40.37
2018-07-14T07:47:48.044Z,40.53
2018-07-14T07:48:56.080Z,40.62
2018-07-14T07:50:03.233Z,40.63
2018-07-14T07:51:11.305Z,40.69
2018-07-14T07:52:18.359Z,40.82
2018-07-14T07:53:24.394Z,41.01
2018-07-14T07:54:33.199Z,41.19
2018-07-14T07:55:39.768Z,41.37
2018-07-14T07:56:46.434Z,41.57
2018-07-14T07:57:53.501Z,41.73
2018-07-14T07:59:00.684Z,41.64
2018-07-14T08:00:07.450Z,41.43
2018-07-14T08:01:13.669Z,41.25
2018-07-14T08:02:20.418Z,41.13
2018-07-14T08:03:28.540Z,41.14
2018-07-14T08:04:36.550Z,41.25
2018-07-14T08:05:44.798Z,41.45
2018-07-14T08:06:51.088Z,41.72
2018-07-14T08:07:57.876Z,41.94
2018-07-14T08:09:05.920Z,42.14
2018-07-14T08:10:15.151Z,42.28
2018-07-14T08:11:21.773Z,42.39
2018-07-14T08:12:28.083Z,42.45
2018-07-14T08:13:34.235Z,42.52
2018-07-14T08:14:41.421Z,42.61
2018-07-14T08:15:47.648Z,42.76
2018-07-14T08:16:54.737Z,42.92
2018-07-14T08:18:01.736Z,43.05
2018-07-14T08:19:10.932Z,43.20
2018-07-14T08:20:19.221Z,43.26
2018-07-14T08:21:26.480Z,43.28
2018-07-14T08:22:33.181Z,43.36
2018-07-14T08:23:39.406Z,43.47
2018-07-14T08:24:46.800Z,43.61
2018-07-14T08:25:54.307Z,43.74
2018-07-14T08:27:00.628Z,43.88
2018-07-14T08:28:07.806Z,44.02
2018-07-14T08:29:14.073Z,44.13
2018-07-14T08:30:21.155Z,44.22
2018-07-14T08:31:28.296Z,44.28
2018-07-14T08:32:34.363Z,44.31
2018-07-14T08:33:41.722Z,44.37
2018-07-14T08:34:48.903Z,44.46
2018-07-14T08:35:55.994Z,44.51
2018-07-14T08:37:02.314Z,44.55
2018-07-14T08:38:09.538Z,44.53
2018-07-14T08:39:15.752Z,44.42
2018-07-14T08:40:23.982Z,44.39
2018-07-14T08:41:30.290Z,44.38
2018-07-14T08:42:36.487Z,44.39
2018-07-14T08:43:43.470Z,44.41
2018-07-14T08:44:52.841Z,44.48
2018-07-14T08:46:00.740Z,44.54
2018-07-14T08:47:07.252Z,44.58
2018-07-14T08:48:13.364Z,44.68
2018-07-14T08:49:20.746Z,44.80
2018-07-14T08:50:27.347Z,44.90
2018-07-14T08:51:35.211Z,44.99
2018-07-14T08:52:41.550Z,45.03
2018-07-14T08:53:47.794Z,45.03
2018-07-14T08:54:53.963Z,45.04
2018-07-14T08:56:02.781Z,45.11
2018-07-14T08:57:09.843Z,45.16
2018-07-14T08:58:17.155Z,45.18
2018-07-14T08:59:23.282Z,45.19
2018-07-14T09:00:30.438Z,45.21
2018-07-14T09:01:36.687Z,45.19
2018-07-14T09:02:45.340Z,45.20
2018-07-14T09:03:52.466Z,45.24
2018-07-14T09:04:58.807Z,45.23
2018-07-14T09:06:05.364Z,45.20
2018-07-14T09:07:12.835Z,45.13
2018-07-14T09:08:19.503Z,45.07
2018-07-14T09:09:25.616Z,45.01
2018-07-14T09:10:32.916Z,44.99
2018-07-14T09:11:39.676Z,44.97
2018-07-14T09:12:46.648Z,44.96
2018-07-14T09:13:54.095Z,44.98
2018-07-14T09:15:00.253Z,45.02
2018-07-14T09:16:07.465Z,45.04
2018-07-14T09:17:13.688Z,44.97
2018-07-14T09:18:20.303Z,44.90
2018-07-14T09:19:28.596Z,44.84
2018-07-14T09:20:35.160Z,44.71
2018-07-14T09:21:42.377Z,44.58
2018-07-14T09:22:48.652Z,44.53
2018-07-14T09:23:55.094Z,44.49
2018-07-14T09:25:02.078Z,44.42
2018-07-14T09:26:10.629Z,44.31
2018-07-14T09:27:17.666Z,44.14
2018-07-14T09:28:28.070Z,44.03
2018-07-14T09:29:36.932Z,43.94
2018-07-14T09:30:47.857Z,43.84
2018-07-14T09:31:56.577Z,43.73
2018-07-14T09:33:07.799Z,43.70
2018-07-14T09:34:17.200Z,43.57
2018-07-14T09:35:26.152Z,43.48
2018-07-14T09:36:35.043Z,43.41
2018-07-14T09:37:43.414Z,43.28
2018-07-14T09:38:54.528Z,43.12
2018-07-14T09:40:04.161Z,42.96
2018-07-14T09:41:13.300Z,42.75
2018-07-14T09:42:21.955Z,42.56
2018-07-14T09:43:31.528Z,42.41
2018-07-14T09:44:40.497Z,42.26
2018-07-14T09:45:49.026Z,42.17
2018-07-14T09:46:59.048Z,42.13
2018-07-14T09:48:09.330Z,42.05
2018-07-14T09:49:15.752Z,42.00
2018-07-14T09:50:22.060Z,41.95
2018-07-14T09:51:30.720Z,41.92
2018-07-14T09:52:38.350Z,41.82
2018-07-14T09:53:45.898Z,41.78
2018-07-14T09:54:52.468Z,41.75
2018-07-14T09:55:59.451Z,41.71
2018-07-14T09:57:05.990Z,41.63
2018-07-14T09:58:13.176Z,41.53
2018-07-14T09:59:20.380Z,41.41
2018-07-14T10:00:32.674Z,41.26
2018-07-14T10:01:41.269Z,41.07
2018-07-14T10:02:49.335Z,40.90
2018-07-14T10:03:55.904Z,40.77
2018-07-14T10:05:02.636Z,40.58
2018-07-14T10:06:14.006Z,40.28
2018-07-14T10:07:20.318Z,40.02
2018-07-14T10:08:27.090Z,39.95
2018-07-14T10:09:33.428Z,39.94
2018-07-14T10:10:40.755Z,39.97
2018-07-14T10:11:47.204Z,39.94
2018-07-14T10:12:53.522Z,39.96
2018-07-14T10:14:01.018Z,39.99
2018-07-14T10:15:09.594Z,40.05
2018-07-14T10:16:19.317Z,40.08
2018-07-14T10:17:26.063Z,40.12
2018-07-14T10:18:33.058Z,40.13
2018-07-14T10:19:39.480Z,40.11
2018-07-14T10:20:46.717Z,40.07
2018-07-14T10:21:54.038Z,39.94
2018-07-14T10:23:01.620Z,39.82
2018-07-14T10:24:08.843Z,39.69
2018-07-14T10:25:15.214Z,39.52
2018-07-14T10:26:21.506Z,39.35
2018-07-14T10:27:28.248Z,39.21
2018-07-14T10:28:35.645Z,39.07
2018-07-14T10:29:41.869Z,38.88
2018-07-14T10:30:48.042Z,38.74
2018-07-14T10:31:54.164Z,38.62
2018-07-14T10:33:00.280Z,38.59
2018-07-14T10:34:08.386Z,38.58
2018-07-14T10:35:15.641Z,38.50
2018-07-14T10:36:22.037Z,38.43
2018-07-14T10:37:28.994Z,38.32
2018-07-14T10:38:36.935Z,38.20
2018-07-14T10:39:43.206Z,38.08
2018-07-14T10:40:49.433Z,37.93
2018-07-14T10:41:56.451Z,37.79
2018-07-14T10:43:03.714Z,37.69
2018-07-14T10:44:09.912Z,37.61
2018-07-14T10:45:16.244Z,37.52
2018-07-14T10:46:22.395Z,37.47
2018-07-14T10:47:29.478Z,37.47
2018-07-14T10:48:38.380Z,37.50
2018-07-14T10:49:44.970Z,37.55
2018-07-14T10:50:53.403Z,37.59
2018-07-14T10:52:02.173Z,37.65
2018-07-14T10:53:11.697Z,37.72
2018-07-14T10:54:19.844Z,37.72
2018-07-14T10:55:25.945Z,37.75
2018-07-14T10:56:32.588Z,37.76
2018-07-14T10:57:38.803Z,37.77
2018-07-14T10:58:45.237Z,37.80
2018-07-14T10:59:52.103Z,37.84
2018-07-14T11:01:00.759Z,37.85
2018-07-14T11:02:08.372Z,37.86
2018-07-14T11:03:15.385Z,37.85
2018-07-14T11:04:22.509Z,37.88
2018-07-14T11:05:30.724Z,37.91
2018-07-14T11:06:37.128Z,37.95
2018-07-14T11:07:44.527Z,38.01
2018-07-14T11:08:50.688Z,38.03
2018-07-14T11:09:56.632Z,38.03
2018-07-14T11:11:04.367Z,38.00
2018-07-14T11:12:10.468Z,37.90
2018-07-14T11:13:21.207Z,37.79
2018-07-14T11:14:31.252Z,37.73
2018-07-14T11:15:37.880Z,37.69
2018-07-14T11:16:45.645Z,37.68
2018-07-14T11:17:52.610Z,37.69
2018-07-14T11:18:58.675Z,37.69
2018-07-14T11:20:05.229Z,37.65
2018-07-14T11:21:11.651Z,37.62
2018-07-14T11:22:18.597Z,37.53
2018-07-14T11:23:28.367Z,37.41
2018-07-14T11:24:34.549Z,37.30
2018-07-14T11:25:41.493Z,37.25
2018-07-14T11:26:51.842Z,37.23
2018-07-14T11:28:01.236Z,37.20
2018-07-14T11:29:09.499Z,37.17
2018-07-14T11:30:16.117Z,37.11
2018-07-14T11:31:22.267Z,37.09
2018-07-14T11:32:28.249Z,37.10
2018-07-14T11:33:36.599Z,37.16
2018-07-14T11:34:42.486Z,37.24
2018-07-14T11:35:48.525Z,37.28
2018-07-14T11:36:56.419Z,37.31
2018-07-14T11:38:02.471Z,37.35
2018-07-14T11:39:08.853Z,37.39
2018-07-14T11:40:17.155Z,37.42
2018-07-14T11:41:24.231Z,37.43
2018-07-14T11:42:30.539Z,37.41
2018-07-14T11:43:37.289Z,37.39
2018-07-14T11:44:44.454Z,37.41
2018-07-14T11:45:52.751Z,37.41
2018-07-14T11:47:00.166Z,37.42
2018-07-14T11:48:07.093Z,37.41
2018-07-14T11:49:13.348Z,37.37
2018-07-14T11:50:19.577Z,37.42
2018-07-14T11:51:26.040Z,37.45
2018-07-14T11:52:33.023Z,37.48
2018-07-14T11:53:41.812Z,37.52
2018-07-14T11:54:49.413Z,37.56
2018-07-14T11:55:55.549Z,37.57
2018-07-14T11:57:01.567Z,37.57
2018-07-14T11:58:07.399Z,37.58
2018-07-14T11:59:14.358Z,37.58
2018-07-14T12:00:21.491Z,37.56
2018-07-14T12:01:28.823Z,37.51
2018-07-14T12:02:35.051Z,37.49
2018-07-14T12:03:42.751Z,37.46
2018-07-14T12:04:49.736Z,37.44
2018-07-14T12:05:55.949Z,37.40
2018-07-14T12:07:01.961Z,37.36
2018-07-14T12:08:11.025Z,37.30
2018-07-14T12:09:17.194Z,37.29
2018-07-14T12:10:23.238Z,37.23
2018-07-14T12:11:29.381Z,37.16
2018-07-14T12:12:35.885Z,37.07
2018-07-14T12:13:42.733Z,37.01
2018-07-14T12:14:49.311Z,36.97
2018-07-14T12:15:55.830Z,36.94
2018-07-14T12:17:04.769Z,36.92
2018-07-14T12:18:11.186Z,36.88
2018-07-14T12:19:19.228Z,36.84
2018-07-14T12:20:25.505Z,36.79
2018-07-14T12:21:31.477Z,36.75
2018-07-14T12:22:37.519Z,36.74
2018-07-14T12:23:44.888Z,36.71
2018-07-14T12:24:51.140Z,36.71
2018-07-14T12:25:57.994Z,36.72
2018-07-14T12:27:04.156Z,36.76
2018-07-14T12:28:10.257Z,36.80
2018-07-14T12:29:16.377Z,36.82
2018-07-14T12:30:22.587Z,36.83
2018-07-14T12:31:29.551Z,36.83
2018-07-14T12:32:36.212Z,36.80
2018-07-14T12:33:43.217Z,36.74
2018-07-14T12:34:50.147Z,36.71
2018-07-14T12:35:56.868Z,36.71
2018-07-14T12:37:06.606Z,36.69
2018-07-14T12:38:12.549Z,36.67
2018-07-14T12:39:20.040Z,36.59
2018-07-14T12:40:26.340Z,36.53
2018-07-14T12:41:32.504Z,36.49
2018-07-14T12:42:38.574Z,36.48
2018-07-14T12:43:46.671Z,36.47
2018-07-14T12:44:52.818Z,36.44
2018-07-14T12:45:59.200Z,36.43
2018-07-14T12:47:05.470Z,36.41
2018-07-14T12:48:12.052Z,36.39
2018-07-14T12:49:18.215Z,36.41
2018-07-14T12:50:25.271Z,36.41
2018-07-14T12:51:31.634Z,36.41
2018-07-14T12:52:38.973Z,36.41
2018-07-14T12:53:45.260Z,36.43
2018-07-14T12:54:51.320Z,36.45
2018-07-14T12:55:58.603Z,36.46
2018-07-14T12:57:05.665Z,36.48
2018-07-14T12:58:13.682Z,36.52
2018-07-14T12:59:20.916Z,36.55
2018-07-14T13:00:27.152Z,36.60
2018-07-14T13:01:33.277Z,36.62
2018-07-14T13:02:43.538Z,36.61
2018-07-14T13:03:50.902Z,36.60
2018-07-14T13:04:57.234Z,36.55
2018-07-14T13:06:03.382Z,36.51
2018-07-14T13:07:09.537Z,36.46
2018-07-14T13:08:15.782Z,36.41
2018-07-14T13:09:21.805Z,36.37
2018-07-14T13:10:27.928Z,36.32
2018-07-14T13:11:34.075Z,36.30
2018-07-14T13:12:40.278Z,36.31
2018-07-14T13:13:46.381Z,36.28
2018-07-14T13:14:52.497Z,36.27
2018-07-14T13:16:00.166Z,36.28
2018-07-14T13:17:07.472Z,36.29
2018-07-14T13:18:13.672Z,36.30
2018-07-14T13:19:20.633Z,36.29
2018-07-14T13:20:26.768Z,36.29
2018-07-14T13:21:32.902Z,36.29
2018-07-14T13:22:39.058Z,36.29
2018-07-14T13:23:45.088Z,36.32
2018-07-14T13:24:51.389Z,36.35
2018-07-14T13:25:58.922Z,36.38
2018-07-14T13:27:05.244Z,36.37
2018-07-14T13:28:11.358Z,36.39
2018-07-14T13:29:18.375Z,36.40
2018-07-14T13:30:25.930Z,36.42
2018-07-14T13:31:32.634Z,36.42
2018-07-14T13:32:40.270Z,36.44
2018-07-14T13:33:46.326Z,36.43
2018-07-14T13:34:52.868Z,36.43
2018-07-14T13:35:59.910Z,36.43
2018-07-14T13:37:07.074Z,36.46
2018-07-14T13:38:13.115Z,36.48
2018-07-14T13:39:20.096Z,36.47
2018-07-14T13:40:26.190Z,36.49
2018-07-14T13:41:33.689Z,36.49
2018-07-14T13:42:41.466Z,36.49
2018-07-14T13:43:48.019Z,36.50
2018-07-14T13:44:55.028Z,36.52
2018-07-14T13:46:01.320Z,36.53
2018-07-14T13:47:08.922Z,36.55
2018-07-14T13:48:21.322Z,36.57
2018-07-14T13:49:29.714Z,36.57
2018-07-14T13:50:36.234Z,36.56
2018-07-14T13:51:42.375Z,36.56
2018-07-14T13:52:48.448Z,36.58
2018-07-14T13:53:55.554Z,36.58
2018-07-14T13:55:01.700Z,36.58
2018-07-14T13:56:08.748Z,36.56
2018-07-14T13:57:14.993Z,36.50
2018-07-14T13:58:21.082Z,36.44
2018-07-14T13:59:28.433Z,36.41
2018-07-14T14:00:35.370Z,36.41
2018-07-14T14:01:41.496Z,36.40
2018-07-14T14:02:48.602Z,36.40
2018-07-14T14:03:54.579Z,36.39
2018-07-14T14:05:01.501Z,36.38
2018-07-14T14:06:10.125Z,36.37
2018-07-14T14:07:16.303Z,36.36
2018-07-14T14:08:24.329Z,36.37
2018-07-14T14:09:30.440Z,36.38
2018-07-14T14:10:36.518Z,36.39
2018-07-14T14:11:43.329Z,36.38
2018-07-14T14:12:49.481Z,36.38
2018-07-14T14:13:59.703Z,36.37
2018-07-14T14:15:06.107Z,36.38
2018-07-14T14:16:12.368Z,36.41
2018-07-14T14:17:18.259Z,36.42
2018-07-14T14:18:24.638Z,36.45
2018-07-14T14:19:33.071Z,36.46
2018-07-14T14:20:39.283Z,36.48
2018-07-14T14:21:45.743Z,36.47
2018-07-14T14:22:53.363Z,36.46
2018-07-14T14:23:59.285Z,36.43
2018-07-14T14:25:06.357Z,36.43
2018-07-14T14:26:13.799Z,36.43
2018-07-14T14:27:19.997Z,36.42
2018-07-14T14:28:26.253Z,36.41
2018-07-14T14:29:32.280Z,36.40
2018-07-14T14:30:39.080Z,36.42
2018-07-14T14:31:46.771Z,36.43
2018-07-14T14:32:54.500Z,36.43
2018-07-14T14:34:00.439Z,36.46
2018-07-14T14:35:06.564Z,36.47
2018-07-14T14:36:12.637Z,36.47
2018-07-14T14:37:24.109Z,36.48
2018-07-14T14:38:30.212Z,36.48
2018-07-14T14:39:36.581Z,36.49
2018-07-14T14:40:42.616Z,36.49
2018-07-14T14:41:48.782Z,36.50
2018-07-14T14:42:56.546Z,36.51
2018-07-14T14:44:03.718Z,36.51
2018-07-14T14:45:10.486Z,36.50
2018-07-14T14:46:17.815Z,36.45
2018-07-14T14:47:24.781Z,36.45
2018-07-14T14:48:31.289Z,36.43
2018-07-14T14:49:38.561Z,36.40
2018-07-14T14:50:44.545Z,36.40
2018-07-14T14:51:50.466Z,36.39
2018-07-14T14:52:56.568Z,36.39
2018-07-14T14:54:02.612Z,36.39
2018-07-14T14:55:09.659Z,36.40
2018-07-14T14:56:15.720Z,36.41
2018-07-14T14:57:21.854Z,36.42
2018-07-14T14:58:28.861Z,36.42
2018-07-14T14:59:35.036Z,36.41
2018-07-14T15:00:41.494Z,36.42
2018-07-14T15:01:47.965Z,36.38
2018-07-14T15:02:56.453Z,36.33
2018-07-14T15:04:03.042Z,36.24
2018-07-14T15:05:09.100Z,36.18
2018-07-14T15:06:15.285Z,36.14
2018-07-14T15:07:22.120Z,36.14
2018-07-14T15:08:29.523Z,36.14
2018-07-14T15:09:38.419Z,36.16
2018-07-14T15:10:46.481Z,36.17
2018-07-14T15:11:54.435Z,36.16
2018-07-14T15:13:01.479Z,36.17
2018-07-14T15:14:08.534Z,36.13
2018-07-14T15:15:14.717Z,36.11
2018-07-14T15:16:20.855Z,36.11
2018-07-14T15:17:26.977Z,36.13
2018-07-14T15:18:33.256Z,36.15
2018-07-14T15:19:39.805Z,36.16
2018-07-14T15:20:46.646Z,36.16
2018-07-14T15:21:53.772Z,36.14
2018-07-14T15:23:00.027Z,36.14
2018-07-14T15:24:07.039Z,36.15
2018-07-14T15:25:13.506Z,36.17
2018-07-14T15:26:21.461Z,36.17
2018-07-14T15:27:27.588Z,36.18
2018-07-14T15:28:33.565Z,36.21
2018-07-14T15:29:39.563Z,36.21
2018-07-14T15:30:45.931Z,36.24
2018-07-14T15:31:52.070Z,36.26
2018-07-14T15:32:58.415Z,36.27
2018-07-14T15:34:04.444Z,36.27
2018-07-14T15:35:10.619Z,36.27
2018-07-14T15:36:16.693Z,36.28
2018-07-14T15:37:23.703Z,36.29
2018-07-14T15:38:30.797Z,36.28
2018-07-14T15:39:36.857Z,36.29
2018-07-14T15:40:43.443Z,36.28
2018-07-14T15:41:49.488Z,36.28
2018-07-14T15:42:55.653Z,36.27
2018-07-14T15:44:01.689Z,36.27
2018-07-14T15:45:08.153Z,36.26
2018-07-14T15:46:14.183Z,36.24
2018-07-14T15:47:20.821Z,36.23
2018-07-14T15:48:28.580Z,36.23
2018-07-14T15:49:36.025Z,36.23
2018-07-14T15:50:42.485Z,36.22
2018-07-14T15:51:48.649Z,36.21
2018-07-14T15:52:54.677Z,36.21
2018-07-14T15:54:00.732Z,36.22
2018-07-14T15:55:06.997Z,36.21
2018-07-14T15:56:14.641Z,36.21
2018-07-14T15:57:21.635Z,36.20
2018-07-14T15:58:27.752Z,36.20
2018-07-14T15:59:39.165Z,36.18
2018-07-14T16:00:45.216Z,36.18
2018-07-14T16:01:52.211Z,36.17
2018-07-14T16:02:58.417Z,36.17
2018-07-14T16:04:04.551Z,36.17
2018-07-14T16:05:11.665Z,36.17
2018-07-14T16:06:18.249Z,36.16
2018-07-14T16:07:24.353Z,36.17
2018-07-14T16:08:30.415Z,36.17
2018-07-14T16:09:37.203Z,36.18
2018-07-14T16:10:43.423Z,36.16
2018-07-14T16:11:49.903Z,36.16
2018-07-14T16:12:57.489Z,36.15
2018-07-14T16:14:05.656Z,36.16
2018-07-14T16:15:11.594Z,36.14
2018-07-14T16:16:17.699Z,36.13
2018-07-14T16:17:25.749Z,36.13
2018-07-14T16:18:33.666Z,36.12
2018-07-14T16:19:40.529Z,36.11
2018-07-14T16:20:46.914Z,36.11
2018-07-14T16:21:53.273Z,36.09
2018-07-14T16:22:59.450Z,36.04
2018-07-14T16:24:05.530Z,36.01
2018-07-14T16:25:11.595Z,35.99
2018-07-14T16:26:17.577Z,35.98
2018-07-14T16:27:23.927Z,35.98
2018-07-14T16:28:32.159Z,35.98
2018-07-14T16:29:40.155Z,35.99
2018-07-14T16:30:46.379Z,36.00
2018-07-14T16:31:54.078Z,36.00
2018-07-14T16:33:00.567Z,35.99
2018-07-14T16:34:06.544Z,36.00
2018-07-14T16:35:14.777Z,36.00
2018-07-14T16:36:22.221Z,36.00
2018-07-14T16:37:28.764Z,35.99
2018-07-14T16:38:35.890Z,36.00
2018-07-14T16:39:43.225Z,36.00
2018-07-14T16:40:54.947Z,36.01
2018-07-14T16:42:00.834Z,36.00
2018-07-14T16:43:07.095Z,35.98
2018-07-14T16:44:13.091Z,35.97
2018-07-14T16:45:19.157Z,35.95
2018-07-14T16:47:36.011Z,35.93
2018-07-14T16:48:42.100Z,35.93
2018-07-14T16:49:48.130Z,35.93
2018-07-14T16:50:54.126Z,35.91
2018-07-14T16:52:00.301Z,35.91
2018-07-14T16:53:07.426Z,35.91
2018-07-14T16:54:13.571Z,35.90
2018-07-14T16:55:29.584Z,35.90
2018-07-14T16:56:36.034Z,35.89
2018-07-14T16:57:42.492Z,35.85
2018-07-14T16:58:49.561Z,35.78
2018-07-14T16:59:56.127Z,35.69
2018-07-14T17:01:03.402Z,35.63
2018-07-14T17:02:10.021Z,35.60
2018-07-14T17:03:16.594Z,35.57
2018-07-14T17:04:24.350Z,35.53
2018-07-14T17:05:30.753Z,35.52
2018-07-14T17:06:37.111Z,35.52
2018-07-14T17:07:43.775Z,35.49
2018-07-14T17:08:50.075Z,35.47
2018-07-14T17:09:56.325Z,35.44
2018-07-14T17:11:03.208Z,35.44
2018-07-14T17:12:10.111Z,35.42
2018-07-14T17:13:18.233Z,35.42
2018-07-14T17:14:25.061Z,35.41
2018-07-14T17:15:31.613Z,35.40
2018-07-14T17:16:37.938Z,35.38
2018-07-14T17:17:47.551Z,35.39
2018-07-14T17:18:53.983Z,35.38
2018-07-14T17:20:01.256Z,35.38
2018-07-14T17:21:07.834Z,35.36
2018-07-14T17:22:14.287Z,35.36
2018-07-14T17:23:21.345Z,35.34
2018-07-14T17:24:27.810Z,35.33
2018-07-14T17:25:34.102Z,35.31
2018-07-14T17:26:41.353Z,35.30
2018-07-14T17:27:47.908Z,35.29
2018-07-14T17:28:55.633Z,35.28
2018-07-14T17:30:02.213Z,35.28
2018-07-14T17:31:10.921Z,35.26
2018-07-14T17:32:17.230Z,35.21
2018-07-14T17:33:23.892Z,35.18
2018-07-14T17:34:31.616Z,35.14
2018-07-14T17:35:37.929Z,35.12
2018-07-14T17:36:44.095Z,35.09
2018-07-14T17:37:52.634Z,35.08
2018-07-14T17:38:59.628Z,35.06
2018-07-14T17:40:06.295Z,35.03
2018-07-14T17:41:13.650Z,35.01
2018-07-14T17:42:20.458Z,34.98
2018-07-14T17:43:28.826Z,34.94
2018-07-14T17:44:35.047Z,34.90
2018-07-14T17:45:41.422Z,34.87
2018-07-14T17:46:48.833Z,34.84
2018-07-14T17:47:56.672Z,34.80
2018-07-14T17:49:03.183Z,34.77
2018-07-14T17:50:09.493Z,34.75
2018-07-14T17:51:18.163Z,34.72
2018-07-14T17:52:24.936Z,34.69
2018-07-14T17:53:31.954Z,34.66
2018-07-14T17:54:39.396Z,34.63
2018-07-14T17:55:45.646Z,34.59
2018-07-14T17:56:52.574Z,34.55
2018-07-14T17:58:01.774Z,34.52
2018-07-14T17:59:10.375Z,34.50
2018-07-14T18:00:16.735Z,34.48
2018-07-14T18:01:23.845Z,34.44
2018-07-14T18:02:30.338Z,34.42
2018-07-14T18:03:38.826Z,34.41
2018-07-14T18:04:46.453Z,34.40
2018-07-14T18:05:54.318Z,34.36
2018-07-14T18:07:00.628Z,34.35
2018-07-14T18:08:07.110Z,34.34
2018-07-14T18:09:14.316Z,34.31
2018-07-14T18:10:21.785Z,34.26
2018-07-14T18:11:30.214Z,34.22
2018-07-14T18:12:36.582Z,34.18
2018-07-14T18:13:42.736Z,34.13
2018-07-14T18:14:48.911Z,34.08
2018-07-14T18:15:55.472Z,34.03
2018-07-14T18:17:01.866Z,33.99
2018-07-14T18:18:08.662Z,33.95
2018-07-14T18:19:14.767Z,33.91
2018-07-14T18:20:21.756Z,33.88
2018-07-14T18:21:29.561Z,33.84
2018-07-14T18:22:43.772Z,33.79
2018-07-14T18:23:50.467Z,33.74
2018-07-14T18:24:57.388Z,33.70
2018-07-14T18:26:04.094Z,33.66
2018-07-14T18:27:10.565Z,33.61
2018-07-14T18:28:17.384Z,33.59
2018-07-14T18:29:25.039Z,33.56
2018-07-14T18:30:32.815Z,33.52
2018-07-14T18:31:39.382Z,33.49
2018-07-14T18:32:45.901Z,33.46
2018-07-14T18:33:52.675Z,33.44
2018-07-14T18:35:00.161Z,33.42
2018-07-14T18:36:08.787Z,33.40
2018-07-14T18:37:16.381Z,33.37
2018-07-14T18:38:22.968Z,33.35
2018-07-14T18:39:30.905Z,33.34
2018-07-14T18:40:39.020Z,33.31
2018-07-14T18:41:45.996Z,33.28
2018-07-14T18:42:58.426Z,33.25
2018-07-14T18:44:06.413Z,33.22
2018-07-14T18:45:13.486Z,33.19
2018-07-14T18:46:22.721Z,33.18
2018-07-14T18:47:31.990Z,33.14
2018-07-14T18:48:39.043Z,33.11
2018-07-14T18:49:47.543Z,33.10
2018-07-14T18:50:55.908Z,33.08
2018-07-14T18:52:04.777Z,33.07
2018-07-14T18:53:11.467Z,33.06
2018-07-14T18:54:18.001Z,33.05
2018-07-14T18:55:25.265Z,33.04
2018-07-14T18:56:32.121Z,33.05
2018-07-14T18:57:39.238Z,33.03
2018-07-14T18:58:47.121Z,33.02
2018-07-14T18:59:56.090Z,33.01
2018-07-14T19:01:03.894Z,32.99
2018-07-14T19:02:10.989Z,32.98
2018-07-14T19:03:17.459Z,32.98
2018-07-14T19:04:24.404Z,32.97
2018-07-14T19:05:32.553Z,32.96
2018-07-14T19:06:39.046Z,32.95
2018-07-14T19:07:45.413Z,32.94
2018-07-14T19:08:52.120Z,32.93
2018-07-14T19:09:58.917Z,32.91
2018-07-14T19:11:05.594Z,32.90
2018-07-14T19:12:12.114Z,32.89
2018-07-14T19:13:19.099Z,32.88
2018-07-14T19:14:26.785Z,32.85
2018-07-14T19:15:33.642Z,32.83
2018-07-14T19:16:41.621Z,32.81
2018-07-14T19:17:48.236Z,32.78
2018-07-14T19:18:56.152Z,32.76